createdAt,value
2018-12-09T00:00:38.248Z,82.10
2018-12-09T00:03:07.891Z,83.10
2018-12-09T00:05:38.231Z,85.10
2018-12-09T00:08:07.678Z,85.60
2018-12-09T00:10:37.802Z,86.70
2018-12-09T00:13:07.467Z,87.50
2018-12-09T00:15:36.541Z,88.10
2018-12-09T00:18:06.164Z,87.00
2018-12-09T00:20:35.622Z,87.50
2018-12-09T00:23:04.662Z,88.10
2018-12-09T00:25:33.707Z,89.00
2018-12-09T00:28:03.091Z,89.30
2018-12-09T00:30:32.106Z,89.80
2018-12-09T00:33:01.730Z,89.80
2018-12-09T00:35:31.684Z,88.60
2018-12-09T00:38:00.842Z,89.30
2018-12-09T00:40:30.473Z,90.30
2018-12-09T00:43:00.157Z,90.50
2018-12-09T00:45:29.292Z,90.40
2018-12-09T00:47:58.310Z,90.70
2018-12-09T00:50:27.775Z,90.80
2018-12-09T00:52:57.099Z,90.50
2018-12-09T00:55:26.200Z,90.90
2018-12-09T00:57:55.610Z,91.10
2018-12-09T01:00:25.225Z,91.30
2018-12-09T01:02:54.271Z,91.80
2018-12-09T01:05:23.302Z,91.80
2018-12-09T01:07:53.021Z,91.90
2018-12-09T01:10:22.214Z,92.00
2018-12-09T01:12:52.161Z,91.90
2018-12-09T01:15:21.566Z,92.30
2018-12-09T01:17:50.678Z,92.70
2018-12-09T01:20:20.052Z,92.70
2018-12-09T01:22:49.124Z,92.90
2018-12-09T01:25:18.567Z,93.20
2018-12-09T01:27:47.638Z,93.70
2018-12-09T01:30:17.603Z,93.80
2018-12-09T01:32:47.040Z,93.80
2018-12-09T01:35:16.984Z,94.20
2018-12-09T01:37:46.718Z,94.60
2018-12-09T01:40:15.761Z,94.70
2018-12-09T01:42:46.230Z,94.90
2018-12-09T01:45:15.519Z,94.80
2018-12-09T01:47:45.541Z,94.60
2018-12-09T01:50:15.286Z,94.70
2018-12-09T01:52:50.352Z,94.70
2018-12-09T01:55:19.605Z,94.90
2018-12-09T01:57:48.974Z,94.80
2018-12-09T02:00:19.065Z,94.90
2018-12-09T02:02:48.127Z,94.90
2018-12-09T02:05:17.598Z,95.20
2018-12-09T02:07:47.419Z,95.20
2018-12-09T02:10:16.879Z,95.00
2018-12-09T02:12:47.083Z,94.90
2018-12-09T02:15:16.855Z,95.20
2018-12-09T02:17:45.866Z,95.30
2018-12-09T02:20:14.911Z,95.50
2018-12-09T02:22:44.075Z,95.50
2018-12-09T02:25:13.144Z,95.10
2018-12-09T02:27:43.114Z,95.10
2018-12-09T02:30:12.504Z,95.20
2018-12-09T02:32:41.915Z,95.30
2018-12-09T02:35:11.454Z,95.60
2018-12-09T02:37:41.702Z,95.60
2018-12-09T02:40:11.863Z,95.70
2018-12-09T02:42:41.283Z,95.80
2018-12-09T02:45:10.300Z,95.80
2018-12-09T02:47:40.243Z,95.80
2018-12-09T02:50:09.943Z,95.50
2018-12-09T02:52:39.894Z,95.60
2018-12-09T02:55:10.571Z,95.30
2018-12-09T02:57:41.162Z,95.20
2018-12-09T03:00:10.550Z,95.00
2018-12-09T03:02:41.132Z,95.00
2018-12-09T03:05:10.290Z,95.00
2018-12-09T03:07:39.347Z,95.10
2018-12-09T03:10:08.810Z,95.20
2018-12-09T03:12:37.895Z,95.00
2018-12-09T03:15:08.021Z,95.00
2018-12-09T03:17:37.981Z,95.00
2018-12-09T03:20:07.402Z,94.90
2018-12-09T03:22:36.453Z,94.80
2018-12-09T03:25:05.477Z,94.80
2018-12-09T03:27:34.722Z,94.70
2018-12-09T03:30:05.322Z,94.50
2018-12-09T03:32:34.387Z,94.20
2018-12-09T03:35:05.668Z,94.10
2018-12-09T03:37:34.674Z,94.00
2018-12-09T03:40:04.713Z,94.00
2018-12-09T03:42:33.968Z,93.60
2018-12-09T03:45:03.986Z,93.50
2018-12-09T03:47:33.124Z,93.80
2018-12-09T03:50:02.187Z,94.00
2018-12-09T03:52:32.026Z,94.20
2018-12-09T03:55:02.050Z,94.50
2018-12-09T03:57:32.610Z,94.50
2018-12-09T04:00:01.627Z,94.60
2018-12-09T04:02:31.960Z,94.50
2018-12-09T04:05:01.023Z,94.60
2018-12-09T04:07:30.442Z,94.50
2018-12-09T04:10:00.420Z,94.70
2018-12-09T04:12:31.217Z,94.70
2018-12-09T04:15:00.291Z,94.70
2018-12-09T04:17:30.826Z,94.50
2018-12-09T04:20:01.384Z,94.30
2018-12-09T04:22:30.671Z,93.90
2018-12-09T04:24:59.715Z,93.90
2018-12-09T04:27:29.538Z,93.60
2018-12-09T04:30:00.535Z,93.20
2018-12-09T04:32:30.208Z,93.30
2018-12-09T04:35:00.170Z,92.50
2018-12-09T04:37:29.523Z,92.50
2018-12-09T04:39:59.067Z,92.30
2018-12-09T04:42:28.148Z,91.70
2018-12-09T04:44:58.089Z,91.50
2018-12-09T04:47:27.385Z,91.40
2018-12-09T04:49:57.419Z,91.10
2018-12-09T04:52:27.038Z,90.70
2018-12-09T04:54:56.070Z,90.50
2018-12-09T04:57:25.692Z,90.40
2018-12-09T05:03:00.987Z,90.00
2018-12-09T05:05:31.095Z,89.70
2018-12-09T05:08:00.124Z,89.20
2018-12-09T05:10:30.635Z,88.60
2018-12-09T05:12:59.966Z,87.90
2018-12-09T05:15:29.420Z,87.30
2018-12-09T05:17:59.338Z,86.60
2018-12-09T05:20:28.508Z,87.30
2018-12-09T05:22:58.463Z,86.80
2018-12-09T05:25:28.672Z,86.70
2018-12-09T05:27:59.242Z,87.30
2018-12-09T05:30:28.899Z,86.50
2018-12-09T05:32:58.324Z,85.00
2018-12-09T05:35:28.174Z,84.60
2018-12-09T05:37:57.791Z,84.10
2018-12-09T05:40:27.211Z,84.00
2018-12-09T05:42:56.489Z,83.40
2018-12-09T05:45:26.643Z,82.90
2018-12-09T05:47:56.617Z,83.10
2018-12-09T05:50:26.314Z,82.00
2018-12-09T05:52:55.411Z,82.80
2018-12-09T05:55:24.583Z,83.50
2018-12-09T05:57:53.827Z,85.70
2018-12-09T06:00:23.511Z,86.90
2018-12-09T06:02:56.750Z,87.40
2018-12-09T06:05:25.954Z,86.20
2018-12-09T06:07:55.666Z,86.90
2018-12-09T06:10:25.438Z,84.30
2018-12-09T06:12:55.346Z,83.60
2018-12-09T06:15:25.200Z,82.10
2018-12-09T06:17:54.971Z,80.70
2018-12-09T06:20:25.144Z,80.10
2018-12-09T06:22:54.411Z,79.40
2018-12-09T06:25:23.879Z,79.40
2018-12-09T06:27:53.330Z,78.30
2018-12-09T06:30:23.068Z,78.60
2018-12-09T06:32:52.499Z,78.50
2018-12-09T06:35:21.638Z,79.40
2018-12-09T06:37:50.698Z,80.40
2018-12-09T06:40:20.810Z,82.00
2018-12-09T06:42:50.859Z,83.60
2018-12-09T06:45:21.079Z,83.90
2018-12-09T06:47:50.122Z,85.90
2018-12-09T06:50:19.171Z,87.20
2018-12-09T06:52:48.683Z,87.90
2018-12-09T06:55:18.040Z,88.40
2018-12-09T06:57:47.051Z,88.30
2018-12-09T07:00:16.078Z,88.30
2018-12-09T07:02:45.281Z,88.20
2018-12-09T07:05:14.303Z,87.70
2018-12-09T07:07:44.537Z,87.30
2018-12-09T07:10:13.549Z,87.50
2018-12-09T07:12:43.314Z,87.20
2018-12-09T07:15:12.778Z,87.70
2018-12-09T07:17:43.087Z,87.60
2018-12-09T07:20:12.447Z,88.30
2018-12-09T07:22:42.639Z,88.40
2018-12-09T07:25:12.524Z,89.00
2018-12-09T07:27:42.231Z,89.50
2018-12-09T07:30:11.340Z,89.60
2018-12-09T07:32:40.705Z,90.30
2018-12-09T07:35:10.088Z,90.70
2018-12-09T07:37:39.394Z,90.90
2018-12-09T07:40:10.031Z,91.20
2018-12-09T07:42:39.165Z,91.60
2018-12-09T07:45:08.182Z,91.90
2018-12-09T07:47:37.195Z,92.20
2018-12-09T07:50:06.690Z,92.20
2018-12-09T07:52:35.750Z,92.40
2018-12-09T07:55:04.815Z,92.90
2018-12-09T07:57:33.930Z,93.10
2018-12-09T08:00:03.070Z,93.00
2018-12-09T08:02:32.112Z,92.50
2018-12-09T08:05:01.118Z,92.40
2018-12-09T08:07:31.624Z,92.10
2018-12-09T08:10:01.064Z,92.30
2018-12-09T08:12:30.107Z,92.70
2018-12-09T08:14:59.435Z,93.10
2018-12-09T08:17:28.588Z,93.10
2018-12-09T08:19:58.279Z,93.10
2018-12-09T08:22:27.366Z,92.80
2018-12-09T08:24:56.447Z,92.20
2018-12-09T08:27:25.600Z,92.30
2018-12-09T08:29:56.056Z,92.50
2018-12-09T08:32:25.107Z,92.80
2018-12-09T08:34:55.385Z,93.20
2018-12-09T08:37:25.484Z,93.20
2018-12-09T08:39:54.664Z,93.60
2018-12-09T08:42:23.958Z,93.80
2018-12-09T08:44:53.583Z,94.10
2018-12-09T08:47:22.602Z,94.30
2018-12-09T08:49:52.226Z,94.30
2018-12-09T08:52:22.731Z,94.40
2018-12-09T08:54:52.191Z,93.80
2018-12-09T08:57:22.763Z,92.40
2018-12-09T08:59:52.227Z,92.40
2018-12-09T09:02:21.962Z,92.50
2018-12-09T09:04:51.395Z,92.80
2018-12-09T09:07:20.527Z,92.30
2018-12-09T09:09:50.027Z,92.80
2018-12-09T09:12:19.325Z,92.90
2018-12-09T09:14:48.347Z,92.60
2018-12-09T09:17:17.889Z,92.80
2018-12-09T09:19:47.582Z,92.40
2018-12-09T09:22:17.010Z,92.20
2018-12-09T09:24:46.054Z,91.70
2018-12-09T09:27:15.438Z,91.90
2018-12-09T09:29:44.858Z,91.60
2018-12-09T09:32:13.926Z,91.20
2018-12-09T09:34:43.415Z,90.70
2018-12-09T09:37:12.474Z,90.80
2018-12-09T09:39:41.563Z,89.30
2018-12-09T09:42:10.676Z,88.80
2018-12-09T09:44:41.086Z,87.70
2018-12-09T09:47:10.994Z,86.50
2018-12-09T09:49:40.266Z,88.00
2018-12-09T09:52:09.418Z,85.70
2018-12-09T09:54:38.434Z,86.90
2018-12-09T09:57:07.479Z,88.10
2018-12-09T09:59:36.531Z,88.50
2018-12-09T10:02:07.054Z,88.50
2018-12-09T10:04:36.208Z,87.30
2018-12-09T10:07:05.236Z,89.10
2018-12-09T10:09:34.399Z,85.70
2018-12-09T10:12:03.887Z,84.10
2018-12-09T10:14:32.971Z,85.80
2018-12-09T10:17:02.735Z,86.10
2018-12-09T10:19:32.057Z,86.20
2018-12-09T10:22:01.130Z,86.50
2018-12-09T10:24:30.943Z,86.30
2018-12-09T10:27:00.040Z,84.70
2018-12-09T10:29:30.186Z,82.70
2018-12-09T10:31:59.204Z,82.50
2018-12-09T10:34:28.719Z,83.50
2018-12-09T10:36:57.824Z,82.30
2018-12-09T10:39:28.382Z,80.70
2018-12-09T10:41:57.575Z,80.20
2018-12-09T10:44:27.336Z,81.90
2018-12-09T10:46:56.407Z,80.00
2018-12-09T10:49:25.463Z,79.70
2018-12-09T10:51:55.151Z,79.20
2018-12-09T10:54:24.781Z,78.40
2018-12-09T10:56:53.887Z,76.90
2018-12-09T10:59:23.255Z,77.00
2018-12-09T11:01:55.352Z,76.50
2018-12-09T11:04:25.723Z,75.40
2018-12-09T11:06:54.834Z,76.50
2018-12-09T11:09:23.883Z,78.00
2018-12-09T11:11:53.538Z,79.70
2018-12-09T11:14:23.683Z,77.50
2018-12-09T11:16:53.522Z,76.30
2018-12-09T11:19:22.599Z,75.20
2018-12-09T11:21:51.635Z,75.50
2018-12-09T11:24:21.003Z,76.60
2018-12-09T11:26:50.464Z,75.20
2018-12-09T11:29:20.448Z,76.80
2018-12-09T11:31:49.529Z,77.40
2018-12-09T11:34:19.175Z,77.80
2018-12-09T11:36:48.360Z,76.70
2018-12-09T11:39:19.276Z,76.40
2018-12-09T11:41:48.316Z,77.10
2018-12-09T11:44:18.262Z,78.50
2018-12-09T11:46:47.687Z,78.60
2018-12-09T11:49:16.744Z,79.70
2018-12-09T11:51:45.770Z,79.60
2018-12-09T11:54:14.999Z,79.60
2018-12-09T11:56:44.043Z,79.60
2018-12-09T11:59:13.088Z,78.40
2018-12-09T12:01:43.131Z,78.00
2018-12-09T12:04:12.423Z,75.90
2018-12-09T12:06:41.873Z,74.00
2018-12-09T12:09:11.806Z,73.40
2018-12-09T12:11:41.256Z,74.00
2018-12-09T12:14:10.318Z,75.10
2018-12-09T12:16:39.384Z,75.10
2018-12-09T12:19:08.439Z,75.40
2018-12-09T12:21:37.723Z,74.50
2018-12-09T12:24:08.507Z,75.50
2018-12-09T12:26:38.015Z,75.70
2018-12-09T12:29:07.076Z,75.90
2018-12-09T12:31:36.845Z,76.90
2018-12-09T12:34:06.447Z,75.30
2018-12-09T12:36:37.040Z,76.10
2018-12-09T12:39:07.482Z,75.80
2018-12-09T12:41:36.490Z,77.00
2018-12-09T12:44:06.239Z,76.30
2018-12-09T12:46:36.210Z,77.00
2018-12-09T12:49:06.119Z,76.80
2018-12-09T12:51:35.197Z,77.30
2018-12-09T12:54:05.513Z,77.60
2018-12-09T12:56:35.656Z,78.00
2018-12-09T12:59:04.759Z,79.30
2018-12-09T13:01:34.732Z,79.40
2018-12-09T13:04:03.884Z,78.70
2018-12-09T13:06:32.966Z,79.60
2018-12-09T13:09:02.207Z,79.60
2018-12-09T13:11:33.034Z,79.70
2018-12-09T13:14:02.135Z,79.30
2018-12-09T13:16:31.484Z,78.30
2018-12-09T13:19:01.779Z,78.10
2018-12-09T13:21:30.823Z,78.50
2018-12-09T13:24:01.695Z,76.30
2018-12-09T13:26:31.494Z,76.90
2018-12-09T13:29:01.274Z,76.80
2018-12-09T13:31:30.513Z,75.80
2018-12-09T13:33:59.634Z,75.70
2018-12-09T13:36:28.784Z,74.70
2018-12-09T13:38:57.822Z,76.00
2018-12-09T13:41:26.879Z,75.80
2018-12-09T13:43:55.944Z,75.40
2018-12-09T13:46:24.954Z,74.70
2018-12-09T13:48:54.085Z,74.60
2018-12-09T13:51:24.203Z,74.50
2018-12-09T13:53:54.052Z,74.60
2018-12-09T13:56:23.467Z,74.60
2018-12-09T13:58:53.371Z,74.20
2018-12-09T14:01:23.011Z,74.60
2018-12-09T14:03:52.033Z,74.10
2018-12-09T14:06:21.919Z,73.90
2018-12-09T14:08:52.063Z,73.50
2018-12-09T14:11:21.119Z,72.40
2018-12-09T14:13:50.960Z,73.50
2018-12-09T14:16:20.892Z,72.50
2018-12-09T14:18:50.075Z,72.60
2018-12-09T14:21:19.091Z,73.00
2018-12-09T14:23:48.151Z,74.10
2018-12-09T14:26:17.193Z,74.60
2018-12-09T14:28:47.011Z,75.40
2018-12-09T14:31:16.729Z,75.70
2018-12-09T14:33:46.158Z,77.70
2018-12-09T14:36:15.838Z,75.10
2018-12-09T14:38:45.287Z,74.60
2018-12-09T14:41:14.343Z,75.90
2018-12-09T14:43:44.456Z,76.10
2018-12-09T14:46:14.121Z,75.60
2018-12-09T14:48:43.468Z,76.80
2018-12-09T14:51:13.002Z,76.10
2018-12-09T14:53:42.188Z,76.60
2018-12-09T14:56:11.302Z,76.10
2018-12-09T14:58:40.862Z,76.60
2018-12-09T15:01:10.486Z,77.60
2018-12-09T15:03:40.223Z,79.30
2018-12-09T15:06:09.259Z,79.10
2018-12-09T15:08:38.408Z,79.20
2018-12-09T15:11:08.745Z,79.20
2018-12-09T15:13:38.716Z,80.10
2018-12-09T15:16:07.734Z,79.20
2018-12-09T15:18:36.791Z,80.30
2018-12-09T15:21:05.992Z,79.20
2018-12-09T15:23:35.418Z,79.20
2018-12-09T15:26:04.716Z,79.20
2018-12-09T15:28:33.775Z,79.20
2018-12-09T15:31:03.146Z,79.60
2018-12-09T15:33:32.374Z,79.10
2018-12-09T15:36:01.731Z,79.10
2018-12-09T15:38:31.194Z,79.80
2018-12-09T15:41:01.136Z,79.80
2018-12-09T15:43:30.715Z,79.00
2018-12-09T15:45:59.764Z,79.00
2018-12-09T15:48:29.212Z,79.00
2018-12-09T15:50:58.849Z,77.70
2018-12-09T15:53:27.926Z,78.20
2018-12-09T15:55:58.492Z,77.00
2018-12-09T15:58:28.077Z,77.40
2018-12-09T16:00:57.119Z,76.50
2018-12-09T16:03:26.575Z,76.70
2018-12-09T16:05:56.174Z,76.70
2018-12-09T16:08:25.573Z,76.90
2018-12-09T16:10:55.087Z,77.50
2018-12-09T16:13:24.852Z,77.20
2018-12-09T16:15:54.435Z,76.80
2018-12-09T16:18:23.465Z,77.60
2018-12-09T16:20:53.185Z,77.80
2018-12-09T16:23:23.034Z,77.30
2018-12-09T16:25:52.390Z,77.60
2018-12-09T16:28:21.456Z,77.60
2018-12-09T16:30:51.420Z,77.60
2018-12-09T16:33:21.235Z,78.70
2018-12-09T16:35:51.512Z,79.00
2018-12-09T16:38:20.621Z,79.00
2018-12-09T16:40:50.455Z,79.70
2018-12-09T16:43:19.483Z,79.00
2018-12-09T16:45:48.805Z,79.00
2018-12-09T16:48:17.901Z,79.10
2018-12-09T16:50:47.675Z,80.10
2018-12-09T16:53:16.735Z,80.40
2018-12-09T16:55:46.163Z,80.90
2018-12-09T16:58:15.337Z,81.20
2018-12-09T17:00:44.947Z,81.30
2018-12-09T17:03:14.415Z,81.10
2018-12-09T17:05:43.475Z,81.30
2018-12-09T17:08:13.005Z,81.60
2018-12-09T17:10:43.119Z,81.40
2018-12-09T17:13:12.230Z,81.40
2018-12-09T17:15:41.696Z,81.50
2018-12-09T17:18:11.135Z,81.20
2018-12-09T17:20:40.456Z,81.60
2018-12-09T17:23:09.807Z,81.90
2018-12-09T17:25:38.838Z,80.30
2018-12-09T17:28:08.194Z,78.90
2018-12-09T17:30:37.227Z,78.00
2018-12-09T17:33:06.354Z,78.90
2018-12-09T17:35:35.366Z,78.90
2018-12-09T17:38:04.411Z,78.80
2018-12-09T17:40:33.434Z,78.20
2018-12-09T17:43:02.527Z,78.80
2018-12-09T17:45:31.568Z,78.50
2018-12-09T17:48:02.186Z,78.30
2018-12-09T17:50:31.394Z,76.80
2018-12-09T17:53:00.427Z,76.80
2018-12-09T17:55:29.451Z,76.90
2018-12-09T17:57:58.511Z,75.00
2018-12-09T18:00:27.857Z,74.90
2018-12-09T18:02:56.878Z,74.20
2018-12-09T18:05:25.944Z,74.80
2018-12-09T18:07:55.032Z,75.40
2018-12-09T18:10:24.077Z,75.00
2018-12-09T18:12:53.109Z,75.40
2018-12-09T18:15:22.579Z,75.20
2018-12-09T18:17:51.637Z,76.70
2018-12-09T18:20:20.695Z,76.80
2018-12-09T18:22:50.042Z,76.40
2018-12-09T18:25:19.106Z,76.10
2018-12-09T18:27:48.431Z,75.90
2018-12-09T18:30:17.455Z,76.00
2018-12-09T18:32:46.525Z,75.30
2018-12-09T18:35:15.922Z,75.50
2018-12-09T18:37:46.525Z,75.40
2018-12-09T18:40:15.727Z,75.50
2018-12-09T18:42:44.733Z,76.90
2018-12-09T18:45:13.760Z,75.80
2018-12-09T18:47:42.780Z,76.20
2018-12-09T18:50:11.794Z,75.50
2018-12-09T18:52:40.819Z,75.00
2018-12-09T18:55:10.195Z,75.30
2018-12-09T18:57:39.228Z,75.00
2018-12-09T19:00:08.252Z,73.90
2018-12-09T19:02:37.290Z,73.90
2018-12-09T19:05:06.714Z,75.00
2018-12-09T19:07:36.043Z,74.40
2018-12-09T19:10:05.902Z,74.20
2018-12-09T19:12:34.939Z,74.60
2018-12-09T19:15:05.016Z,74.30
2018-12-09T19:17:34.322Z,74.10
2018-12-09T19:20:03.386Z,74.00
2018-12-09T19:22:32.493Z,72.90
2018-12-09T19:25:01.639Z,72.90
2018-12-09T19:27:30.956Z,71.90
2018-12-09T19:29:59.991Z,72.80
2018-12-09T19:32:29.006Z,73.00
2018-12-09T19:34:58.395Z,71.80
2018-12-09T19:37:27.402Z,70.60
2018-12-09T19:39:56.653Z,71.00
2018-12-09T19:42:25.736Z,70.20
2018-12-09T19:44:54.766Z,69.30
2018-12-09T19:47:23.819Z,70.10
2018-12-09T19:49:52.838Z,71.10
2018-12-09T19:52:22.186Z,69.20
2018-12-09T19:54:51.239Z,69.20
2018-12-09T19:57:20.290Z,69.30
2018-12-09T19:59:49.343Z,69.60
2018-12-09T20:02:18.349Z,66.30
2018-12-09T20:04:47.399Z,67.70
2018-12-09T20:07:16.444Z,68.20
2018-12-09T20:09:45.532Z,67.00
2018-12-09T20:12:14.852Z,68.50
2018-12-09T20:14:43.896Z,66.10
2018-12-09T20:17:13.315Z,66.60
2018-12-09T20:19:42.667Z,66.60
2018-12-09T20:22:11.695Z,66.90
2018-12-09T20:24:41.028Z,66.20
2018-12-09T20:27:10.343Z,66.40
2018-12-09T20:29:39.407Z,67.30
2018-12-09T20:32:08.755Z,67.90
2018-12-09T20:34:37.764Z,67.70
2018-12-09T20:37:07.085Z,67.80
2018-12-09T20:39:36.136Z,67.00
2018-12-09T20:42:05.163Z,67.70
2018-12-09T20:44:34.470Z,67.50
2018-12-09T20:47:03.798Z,67.70
2018-12-09T20:49:33.147Z,67.30
2018-12-09T20:52:02.213Z,67.60
2018-12-09T20:54:31.252Z,66.90
2018-12-09T20:57:00.271Z,66.90
2018-12-09T20:59:29.427Z,66.50
2018-12-09T21:01:58.468Z,64.50
2018-12-09T21:04:27.516Z,64.30
2018-12-09T21:06:56.524Z,64.60
2018-12-09T21:09:25.630Z,64.20
2018-12-09T21:11:54.634Z,64.00
2018-12-09T21:14:23.685Z,63.00
2018-12-09T21:16:52.735Z,63.70
2018-12-09T21:19:21.742Z,63.10
2018-12-09T21:21:50.760Z,61.90
2018-12-09T21:24:25.836Z,62.50
2018-12-09T21:26:50.843Z,62.50
2018-12-09T21:29:19.899Z,62.60
2018-12-09T21:31:48.991Z,62.00
2018-12-09T21:34:18.040Z,61.90
2018-12-09T21:36:47.034Z,61.90
2018-12-09T21:39:16.431Z,62.30
2018-12-09T21:41:45.511Z,62.70
2018-12-09T21:44:14.548Z,62.30
2018-12-09T21:46:43.619Z,62.40
2018-12-09T21:49:12.626Z,62.30
2018-12-09T21:51:42.280Z,62.10
2018-12-09T21:54:11.347Z,62.40
2018-12-09T21:56:40.388Z,63.00
2018-12-09T21:59:09.794Z,62.70
2018-12-09T22:01:38.848Z,62.80
2018-12-09T22:04:07.988Z,62.50
2018-12-09T22:06:36.994Z,62.70
2018-12-09T22:09:06.168Z,63.30
2018-12-09T22:11:35.211Z,64.00
2018-12-09T22:14:04.304Z,64.10
2018-12-09T22:16:33.351Z,63.90
2018-12-09T22:19:02.354Z,64.00
2018-12-09T22:21:31.436Z,63.90
2018-12-09T22:24:00.454Z,63.80
2018-12-09T22:26:29.653Z,64.20
2018-12-09T22:28:58.684Z,63.90
2018-12-09T22:31:28.095Z,64.00
2018-12-09T22:33:57.110Z,64.10
2018-12-09T22:36:26.136Z,64.50
2018-12-09T22:38:55.386Z,64.80
2018-12-09T22:41:24.507Z,64.90
2018-12-09T22:43:53.551Z,65.20
2018-12-09T22:46:22.562Z,65.40
2018-12-09T22:48:51.875Z,66.00
2018-12-09T22:51:20.943Z,66.10
2018-12-09T22:53:49.971Z,66.90
2018-12-09T22:56:18.994Z,66.50
2018-12-09T22:58:48.171Z,66.40
2018-12-09T23:01:19.716Z,66.10
2018-12-09T23:03:49.039Z,66.80
2018-12-09T23:06:18.075Z,66.60
2018-12-09T23:08:47.129Z,65.80
2018-12-09T23:11:16.168Z,65.70
2018-12-09T23:13:45.210Z,65.90
2018-12-09T23:16:14.551Z,65.70
2018-12-09T23:18:43.597Z,66.10
2018-12-09T23:21:12.683Z,65.40
2018-12-09T23:23:42.011Z,65.70
2018-12-09T23:26:11.354Z,65.60
2018-12-09T23:28:40.710Z,65.10
2018-12-09T23:31:10.054Z,65.30
2018-12-09T23:33:39.099Z,65.50
2018-12-09T23:36:08.210Z,64.20
2018-12-09T23:38:37.211Z,64.80
2018-12-09T23:41:06.273Z,65.40
2018-12-09T23:43:35.310Z,65.80
2018-12-09T23:46:04.379Z,66.10
2018-12-09T23:48:33.703Z,66.20
2018-12-09T23:51:02.752Z,66.70
2018-12-09T23:53:31.784Z,66.80
2018-12-09T23:56:01.120Z,67.40
2018-12-09T23:58:30.162Z,68.30
